sensor_id;sensor_type;location;lat;lon;timestamp;P1;durP1;ratioP1;P2;durP2;ratioP2
70549;SDS011;58101;48.658;2.328;2023-06-14T00:01:50;11.27;;;5.10;;
70549;SDS011;58101;48.658;2.328;2023-06-14T00:04:16;11.70;;;5.10;;
70549;SDS011;58101;48.658;2.328;2023-06-14T00:06:42;10.45;;;4.75;;
70549;SDS011;58101;48.658;2.328;2023-06-14T00:09:10;12.00;;;4.85;;
70549;SDS011;58101;48.658;2.328;2023-06-14T00:11:39;10.38;;;4.97;;
70549;SDS011;58101;48.658;2.328;2023-06-14T00:14:05;11.98;;;5.38;;
70549;SDS011;58101;48.658;2.328;2023-06-14T00:16:31;9.90;;;4.88;;
70549;SDS011;58101;48.658;2.328;2023-06-14T00:18:58;12.20;;;5.20;;
70549;SDS011;58101;48.658;2.328;2023-06-14T00:21:24;10.55;;;5.28;;
70549;SDS011;58101;48.658;2.328;2023-06-14T00:23:49;12.38;;;5.18;;
70549;SDS011;58101;48.658;2.328;2023-06-14T00:26:15;9.65;;;4.85;;
70549;SDS011;58101;48.658;2.328;2023-06-14T00:28:41;12.52;;;5.30;;
70549;SDS011;58101;48.658;2.328;2023-06-14T00:31:06;12.88;;;4.85;;
70549;SDS011;58101;48.658;2.328;2023-06-14T00:33:32;9.98;;;4.65;;
70549;SDS011;58101;48.658;2.328;2023-06-14T00:35:58;11.10;;;5.30;;
70549;SDS011;58101;48.658;2.328;2023-06-14T00:38:23;12.95;;;4.82;;
70549;SDS011;58101;48.658;2.328;2023-06-14T00:40:50;10.63;;;5.05;;
70549;SDS011;58101;48.658;2.328;2023-06-14T00:43:16;12.32;;;4.93;;
70549;SDS011;58101;48.658;2.328;2023-06-14T00:45:41;11.55;;;5.10;;
70549;SDS011;58101;48.658;2.328;2023-06-14T00:48:07;12.05;;;5.05;;
70549;SDS011;58101;48.658;2.328;2023-06-14T00:50:34;10.88;;;4.80;;
70549;SDS011;58101;48.658;2.328;2023-06-14T00:53:01;10.23;;;5.18;;
70549;SDS011;58101;48.658;2.328;2023-06-14T00:55:28;9.68;;;4.90;;
70549;SDS011;58101;48.658;2.328;2023-06-14T00:57:54;12.77;;;5.68;;
70549;SDS011;58101;48.658;2.328;2023-06-14T01:02:46;11.95;;;5.25;;
70549;SDS011;58101;48.658;2.328;2023-06-14T01:05:11;12.57;;;5.32;;
70549;SDS011;58101;48.658;2.328;2023-06-14T01:10:34;10.38;;;4.90;;
70549;SDS011;58101;48.658;2.328;2023-06-14T01:15:35;10.38;;;4.93;;
70549;SDS011;58101;48.658;2.328;2023-06-14T01:18:02;14.65;;;5.20;;
70549;SDS011;58101;48.658;2.328;2023-06-14T01:20:29;12.80;;;5.10;;
70549;SDS011;58101;48.658;2.328;2023-06-14T01:22:57;11.55;;;5.78;;
70549;SDS011;58101;48.658;2.328;2023-06-14T01:25:23;11.63;;;5.32;;
70549;SDS011;58101;48.658;2.328;2023-06-14T01:27:51;14.82;;;5.50;;
70549;SDS011;58101;48.658;2.328;2023-06-14T01:30:27;10.77;;;4.90;;
70549;SDS011;58101;48.658;2.328;2023-06-14T01:32:55;10.13;;;5.15;;
70549;SDS011;58101;48.658;2.328;2023-06-14T01:35:23;11.63;;;5.10;;
70549;SDS011;58101;48.658;2.328;2023-06-14T01:37:49;14.18;;;5.65;;
70549;SDS011;58101;48.658;2.328;2023-06-14T01:40:17;11.05;;;5.28;;
70549;SDS011;58101;48.658;2.328;2023-06-14T01:42:43;13.02;;;5.50;;
70549;SDS011;58101;48.658;2.328;2023-06-14T01:45:12;11.35;;;5.25;;
70549;SDS011;58101;48.658;2.328;2023-06-14T01:47:38;12.13;;;5.60;;
70549;SDS011;58101;48.658;2.328;2023-06-14T01:50:05;11.25;;;5.40;;
70549;SDS011;58101;48.658;2.328;2023-06-14T01:52:31;12.85;;;5.60;;
70549;SDS011;58101;48.658;2.328;2023-06-14T01:54:57;11.93;;;5.68;;
70549;SDS011;58101;48.658;2.328;2023-06-14T01:57:23;13.60;;;5.60;;
70549;SDS011;58101;48.658;2.328;2023-06-14T01:59:51;10.93;;;5.47;;
70549;SDS011;58101;48.658;2.328;2023-06-14T02:02:17;11.15;;;5.38;;
70549;SDS011;58101;48.658;2.328;2023-06-14T02:04:43;11.20;;;5.10;;
70549;SDS011;58101;48.658;2.328;2023-06-14T02:07:12;13.43;;;5.82;;
70549;SDS011;58101;48.658;2.328;2023-06-14T02:12:04;10.32;;;5.25;;
70549;SDS011;58101;48.658;2.328;2023-06-14T02:14:31;11.00;;;5.68;;
70549;SDS011;58101;48.658;2.328;2023-06-14T02:16:56;13.57;;;5.40;;
70549;SDS011;58101;48.658;2.328;2023-06-14T02:19:22;10.93;;;5.55;;
70549;SDS011;58101;48.658;2.328;2023-06-14T02:21:47;12.48;;;6.10;;
70549;SDS011;58101;48.658;2.328;2023-06-14T02:24:13;12.27;;;5.43;;
70549;SDS011;58101;48.658;2.328;2023-06-14T02:26:39;12.05;;;5.63;;
70549;SDS011;58101;48.658;2.328;2023-06-14T02:29:06;11.95;;;5.32;;
70549;SDS011;58101;48.658;2.328;2023-06-14T02:31:35;14.27;;;5.35;;
70549;SDS011;58101;48.658;2.328;2023-06-14T02:34:01;12.57;;;5.70;;
70549;SDS011;58101;48.658;2.328;2023-06-14T02:36:26;11.60;;;5.60;;
70549;SDS011;58101;48.658;2.328;2023-06-14T02:38:54;11.15;;;5.70;;
70549;SDS011;58101;48.658;2.328;2023-06-14T02:41:22;13.40;;;5.50;;
70549;SDS011;58101;48.658;2.328;2023-06-14T02:43:48;11.45;;;5.82;;
70549;SDS011;58101;48.658;2.328;2023-06-14T02:46:14;11.10;;;5.72;;
70549;SDS011;58101;48.658;2.328;2023-06-14T02:48:40;10.60;;;5.43;;
70549;SDS011;58101;48.658;2.328;2023-06-14T02:51:05;10.77;;;5.35;;
70549;SDS011;58101;48.658;2.328;2023-06-14T02:53:33;10.50;;;5.53;;
70549;SDS011;58101;48.658;2.328;2023-06-14T02:55:59;14.07;;;6.18;;
70549;SDS011;58101;48.658;2.328;2023-06-14T02:58:25;13.38;;;5.65;;
70549;SDS011;58101;48.658;2.328;2023-06-14T03:00:51;13.20;;;5.57;;
70549;SDS011;58101;48.658;2.328;2023-06-14T03:03:19;11.63;;;5.30;;
70549;SDS011;58101;48.658;2.328;2023-06-14T03:05:47;11.75;;;5.70;;
70549;SDS011;58101;48.658;2.328;2023-06-14T03:08:14;11.75;;;5.53;;
70549;SDS011;58101;48.658;2.328;2023-06-14T03:10:52;13.18;;;5.78;;
70549;SDS011;58101;48.658;2.328;2023-06-14T03:13:18;12.55;;;5.63;;
70549;SDS011;58101;48.658;2.328;2023-06-14T03:15:47;11.57;;;5.28;;
70549;SDS011;58101;48.658;2.328;2023-06-14T03:18:15;11.60;;;5.30;;
70549;SDS011;58101;48.658;2.328;2023-06-14T03:20:41;12.25;;;5.70;;
70549;SDS011;58101;48.658;2.328;2023-06-14T03:23:08;11.25;;;5.30;;
70549;SDS011;58101;48.658;2.328;2023-06-14T03:25:34;11.35;;;5.60;;
70549;SDS011;58101;48.658;2.328;2023-06-14T03:28:03;11.73;;;5.65;;
70549;SDS011;58101;48.658;2.328;2023-06-14T03:32:55;14.25;;;5.88;;
70549;SDS011;58101;48.658;2.328;2023-06-14T03:35:22;13.10;;;5.40;;
70549;SDS011;58101;48.658;2.328;2023-06-14T03:37:48;11.93;;;5.57;;
70549;SDS011;58101;48.658;2.328;2023-06-14T03:40:15;12.70;;;5.82;;
70549;SDS011;58101;48.658;2.328;2023-06-14T03:42:43;15.27;;;5.90;;
70549;SDS011;58101;48.658;2.328;2023-06-14T03:45:08;13.40;;;5.63;;
70549;SDS011;58101;48.658;2.328;2023-06-14T03:47:34;11.20;;;5.15;;
70549;SDS011;58101;48.658;2.328;2023-06-14T03:50:01;12.95;;;5.97;;
70549;SDS011;58101;48.658;2.328;2023-06-14T03:52:27;11.30;;;5.60;;
70549;SDS011;58101;48.658;2.328;2023-06-14T03:54:54;11.13;;;5.65;;
70549;SDS011;58101;48.658;2.328;2023-06-14T03:57:20;12.00;;;5.60;;
70549;SDS011;58101;48.658;2.328;2023-06-14T03:59:46;12.75;;;6.25;;
70549;SDS011;58101;48.658;2.328;2023-06-14T04:02:12;14.18;;;6.30;;
70549;SDS011;58101;48.658;2.328;2023-06-14T04:04:41;11.68;;;6.07;;
70549;SDS011;58101;48.658;2.328;2023-06-14T04:07:09;12.00;;;6.07;;
70549;SDS011;58101;48.658;2.328;2023-06-14T04:09:36;12.60;;;6.03;;
70549;SDS011;58101;48.658;2.328;2023-06-14T04:12:03;12.13;;;6.22;;
70549;SDS011;58101;48.658;2.328;2023-06-14T04:14:29;14.05;;;6.13;;
70549;SDS011;58101;48.658;2.328;2023-06-14T04:16:55;11.70;;;5.82;;
70549;SDS011;58101;48.658;2.328;2023-06-14T04:19:21;13.48;;;6.10;;
70549;SDS011;58101;48.658;2.328;2023-06-14T04:21:47;13.90;;;5.97;;
70549;SDS011;58101;48.658;2.328;2023-06-14T04:24:12;12.48;;;6.13;;
70549;SDS011;58101;48.658;2.328;2023-06-14T04:26:42;13.23;;;6.32;;
70549;SDS011;58101;48.658;2.328;2023-06-14T04:29:10;13.45;;;6.43;;
70549;SDS011;58101;48.658;2.328;2023-06-14T04:31:39;13.75;;;6.55;;
70549;SDS011;58101;48.658;2.328;2023-06-14T04:34:05;12.82;;;6.40;;
70549;SDS011;58101;48.658;2.328;2023-06-14T04:36:34;13.40;;;6.38;;
70549;SDS011;58101;48.658;2.328;2023-06-14T04:39:02;14.20;;;6.72;;
70549;SDS011;58101;48.658;2.328;2023-06-14T04:41:29;13.98;;;6.40;;
70549;SDS011;58101;48.658;2.328;2023-06-14T04:46:22;16.42;;;7.18;;
70549;SDS011;58101;48.658;2.328;2023-06-14T04:48:47;13.52;;;6.90;;
70549;SDS011;58101;48.658;2.328;2023-06-14T04:51:15;14.07;;;6.72;;
70549;SDS011;58101;48.658;2.328;2023-06-14T04:53:41;15.85;;;6.68;;
70549;SDS011;58101;48.658;2.328;2023-06-14T04:56:09;15.65;;;6.40;;
70549;SDS011;58101;48.658;2.328;2023-06-14T04:58:35;14.68;;;6.72;;
70549;SDS011;58101;48.658;2.328;2023-06-14T05:01:00;14.52;;;7.10;;
70549;SDS011;58101;48.658;2.328;2023-06-14T05:03:27;13.82;;;6.80;;
70549;SDS011;58101;48.658;2.328;2023-06-14T05:05:52;13.35;;;7.07;;
70549;SDS011;58101;48.658;2.328;2023-06-14T05:08:18;14.63;;;6.80;;
70549;SDS011;58101;48.658;2.328;2023-06-14T05:10:45;14.75;;;6.63;;
70549;SDS011;58101;48.658;2.328;2023-06-14T05:13:11;14.15;;;6.90;;
70549;SDS011;58101;48.658;2.328;2023-06-14T05:15:36;12.30;;;5.97;;
70549;SDS011;58101;48.658;2.328;2023-06-14T05:18:02;17.95;;;6.93;;
70549;SDS011;58101;48.658;2.328;2023-06-14T05:20:28;13.15;;;6.75;;
70549;SDS011;58101;48.658;2.328;2023-06-14T05:22:53;13.68;;;6.47;;
70549;SDS011;58101;48.658;2.328;2023-06-14T05:25:19;15.88;;;6.95;;
70549;SDS011;58101;48.658;2.328;2023-06-14T05:30:12;14.82;;;6.38;;
70549;SDS011;58101;48.658;2.328;2023-06-14T05:32:38;18.02;;;6.55;;
70549;SDS011;58101;48.658;2.328;2023-06-14T05:35:04;13.43;;;6.97;;
70549;SDS011;58101;48.658;2.328;2023-06-14T05:37:31;12.27;;;6.35;;
70549;SDS011;58101;48.658;2.328;2023-06-14T05:39:56;13.68;;;6.47;;
70549;SDS011;58101;48.658;2.328;2023-06-14T05:42:22;13.73;;;6.70;;
70549;SDS011;58101;48.658;2.328;2023-06-14T05:44:48;13.40;;;6.80;;
70549;SDS011;58101;48.658;2.328;2023-06-14T05:47:13;13.93;;;6.70;;
70549;SDS011;58101;48.658;2.328;2023-06-14T05:49:39;14.50;;;6.75;;
70549;SDS011;58101;48.658;2.328;2023-06-14T05:52:05;15.25;;;6.80;;
70549;SDS011;58101;48.658;2.328;2023-06-14T05:54:31;15.07;;;7.20;;
70549;SDS011;58101;48.658;2.328;2023-06-14T05:56:57;16.00;;;7.40;;
70549;SDS011;58101;48.658;2.328;2023-06-14T05:59:26;16.63;;;8.00;;
70549;SDS011;58101;48.658;2.328;2023-06-14T06:01:52;18.23;;;6.82;;
70549;SDS011;58101;48.658;2.328;2023-06-14T06:04:18;16.25;;;7.25;;
70549;SDS011;58101;48.658;2.328;2023-06-14T06:09:10;16.45;;;6.95;;
70549;SDS011;58101;48.658;2.328;2023-06-14T06:11:35;14.52;;;6.95;;
70549;SDS011;58101;48.658;2.328;2023-06-14T06:14:01;12.30;;;6.68;;
70549;SDS011;58101;48.658;2.328;2023-06-14T06:16:27;15.40;;;7.18;;
70549;SDS011;58101;48.658;2.328;2023-06-14T06:18:52;15.50;;;7.25;;
70549;SDS011;58101;48.658;2.328;2023-06-14T06:21:18;14.90;;;7.18;;
70549;SDS011;58101;48.658;2.328;2023-06-14T06:23:44;17.10;;;7.10;;
70549;SDS011;58101;48.658;2.328;2023-06-14T06:26:09;14.65;;;7.15;;
70549;SDS011;58101;48.658;2.328;2023-06-14T06:28:35;17.10;;;7.10;;
70549;SDS011;58101;48.658;2.328;2023-06-14T06:31:00;16.10;;;7.53;;
70549;SDS011;58101;48.658;2.328;2023-06-14T06:33:26;17.70;;;6.70;;
70549;SDS011;58101;48.658;2.328;2023-06-14T06:35:52;14.52;;;7.05;;
70549;SDS011;58101;48.658;2.328;2023-06-14T06:38:17;12.18;;;6.13;;
70549;SDS011;58101;48.658;2.328;2023-06-14T06:40:43;14.93;;;6.13;;
70549;SDS011;58101;48.658;2.328;2023-06-14T06:43:09;13.88;;;5.75;;
70549;SDS011;58101;48.658;2.328;2023-06-14T06:45:38;13.02;;;6.03;;
70549;SDS011;58101;48.658;2.328;2023-06-14T06:48:10;13.63;;;5.22;;
70549;SDS011;58101;48.658;2.328;2023-06-14T06:50:36;14.73;;;5.10;;
70549;SDS011;58101;48.658;2.328;2023-06-14T06:53:02;13.90;;;5.00;;
70549;SDS011;58101;48.658;2.328;2023-06-14T06:55:27;11.98;;;5.30;;
70549;SDS011;58101;48.658;2.328;2023-06-14T06:57:53;15.60;;;4.93;;
70549;SDS011;58101;48.658;2.328;2023-06-14T07:00:19;14.90;;;4.97;;
70549;SDS011;58101;48.658;2.328;2023-06-14T07:02:46;13.68;;;5.18;;
70549;SDS011;58101;48.658;2.328;2023-06-14T07:05:12;12.98;;;5.80;;
70549;SDS011;58101;48.658;2.328;2023-06-14T07:07:37;12.48;;;4.72;;
70549;SDS011;58101;48.658;2.328;2023-06-14T07:10:03;14.82;;;4.97;;
70549;SDS011;58101;48.658;2.328;2023-06-14T07:12:31;13.00;;;5.03;;
70549;SDS011;58101;48.658;2.328;2023-06-14T07:14:58;14.50;;;4.60;;
70549;SDS011;58101;48.658;2.328;2023-06-14T07:17:24;11.75;;;4.45;;
70549;SDS011;58101;48.658;2.328;2023-06-14T07:19:50;13.35;;;4.68;;
70549;SDS011;58101;48.658;2.328;2023-06-14T07:22:16;11.05;;;4.15;;
70549;SDS011;58101;48.658;2.328;2023-06-14T07:24:42;12.95;;;4.47;;
70549;SDS011;58101;48.658;2.328;2023-06-14T07:27:08;13.63;;;4.50;;
70549;SDS011;58101;48.658;2.328;2023-06-14T07:29:34;11.18;;;4.65;;
70549;SDS011;58101;48.658;2.328;2023-06-14T07:32:00;12.63;;;4.55;;
70549;SDS011;58101;48.658;2.328;2023-06-14T07:34:25;9.82;;;4.50;;
70549;SDS011;58101;48.658;2.328;2023-06-14T07:36:52;11.90;;;4.28;;
70549;SDS011;58101;48.658;2.328;2023-06-14T07:39:19;12.73;;;4.47;;
70549;SDS011;58101;48.658;2.328;2023-06-14T07:41:44;10.95;;;4.60;;
70549;SDS011;58101;48.658;2.328;2023-06-14T07:44:10;12.82;;;4.55;;
70549;SDS011;58101;48.658;2.328;2023-06-14T07:46:37;11.77;;;4.72;;
70549;SDS011;58101;48.658;2.328;2023-06-14T07:49:05;12.30;;;4.32;;
70549;SDS011;58101;48.658;2.328;2023-06-14T07:51:31;11.82;;;4.75;;
70549;SDS011;58101;48.658;2.328;2023-06-14T07:53:59;10.02;;;4.63;;
70549;SDS011;58101;48.658;2.328;2023-06-14T07:56:26;13.38;;;4.60;;
70549;SDS011;58101;48.658;2.328;2023-06-14T07:58:51;15.88;;;4.28;;
70549;SDS011;58101;48.658;2.328;2023-06-14T08:01:17;12.40;;;4.60;;
70549;SDS011;58101;48.658;2.328;2023-06-14T08:03:45;15.68;;;4.28;;
70549;SDS011;58101;48.658;2.328;2023-06-14T08:06:10;9.95;;;4.43;;
70549;SDS011;58101;48.658;2.328;2023-06-14T08:11:02;9.82;;;4.07;;
70549;SDS011;58101;48.658;2.328;2023-06-14T08:13:27;8.98;;;3.85;;
70549;SDS011;58101;48.658;2.328;2023-06-14T08:15:53;10.32;;;4.35;;
70549;SDS011;58101;48.658;2.328;2023-06-14T08:18:19;12.45;;;4.30;;
70549;SDS011;58101;48.658;2.328;2023-06-14T08:23:10;10.45;;;3.92;;
70549;SDS011;58101;48.658;2.328;2023-06-14T08:28:01;15.75;;;4.40;;
70549;SDS011;58101;48.658;2.328;2023-06-14T08:32:53;12.32;;;4.43;;
70549;SDS011;58101;48.658;2.328;2023-06-14T08:35:20;10.65;;;4.25;;
70549;SDS011;58101;48.658;2.328;2023-06-14T08:37:46;10.77;;;4.03;;
70549;SDS011;58101;48.658;2.328;2023-06-14T08:42:42;9.88;;;3.90;;
70549;SDS011;58101;48.658;2.328;2023-06-14T08:47:34;9.98;;;3.70;;
70549;SDS011;58101;48.658;2.328;2023-06-14T08:50:14;9.05;;;3.47;;
70549;SDS011;58101;48.658;2.328;2023-06-14T08:52:41;10.18;;;4.00;;
70549;SDS011;58101;48.658;2.328;2023-06-14T08:55:14;11.90;;;3.75;;
70549;SDS011;58101;48.658;2.328;2023-06-14T08:57:42;10.07;;;4.15;;
70549;SDS011;58101;48.658;2.328;2023-06-14T09:00:09;7.22;;;3.50;;
70549;SDS011;58101;48.658;2.328;2023-06-14T09:02:38;8.90;;;3.55;;
70549;SDS011;58101;48.658;2.328;2023-06-14T09:05:09;7.95;;;3.90;;
70549;SDS011;58101;48.658;2.328;2023-06-14T09:07:36;9.23;;;3.38;;
70549;SDS011;58101;48.658;2.328;2023-06-14T09:10:10;8.20;;;3.50;;
70549;SDS011;58101;48.658;2.328;2023-06-14T09:12:37;7.95;;;3.40;;
70549;SDS011;58101;48.658;2.328;2023-06-14T09:15:04;7.40;;;3.33;;
70549;SDS011;58101;48.658;2.328;2023-06-14T09:17:37;7.47;;;3.47;;
70549;SDS011;58101;48.658;2.328;2023-06-14T09:20:04;9.32;;;3.53;;
70549;SDS011;58101;48.658;2.328;2023-06-14T09:22:31;9.27;;;3.60;;
70549;SDS011;58101;48.658;2.328;2023-06-14T09:24:58;10.57;;;3.78;;
70549;SDS011;58101;48.658;2.328;2023-06-14T09:27:27;8.35;;;3.60;;
70549;SDS011;58101;48.658;2.328;2023-06-14T09:29:54;8.45;;;3.45;;
70549;SDS011;58101;48.658;2.328;2023-06-14T09:32:20;8.18;;;3.33;;
70549;SDS011;58101;48.658;2.328;2023-06-14T09:34:46;14.13;;;3.70;;
70549;SDS011;58101;48.658;2.328;2023-06-14T09:37:12;8.70;;;3.60;;
70549;SDS011;58101;48.658;2.328;2023-06-14T09:39:50;7.57;;;3.50;;
70549;SDS011;58101;48.658;2.328;2023-06-14T09:42:16;8.07;;;3.38;;
70549;SDS011;58101;48.658;2.328;2023-06-14T09:44:45;9.20;;;3.33;;
70549;SDS011;58101;48.658;2.328;2023-06-14T09:47:14;8.50;;;3.50;;
70549;SDS011;58101;48.658;2.328;2023-06-14T09:49:40;9.65;;;3.50;;
70549;SDS011;58101;48.658;2.328;2023-06-14T09:52:07;7.60;;;3.45;;
70549;SDS011;58101;48.658;2.328;2023-06-14T09:54:37;7.95;;;3.40;;
70549;SDS011;58101;48.658;2.328;2023-06-14T09:57:11;7.63;;;3.40;;
70549;SDS011;58101;48.658;2.328;2023-06-14T09:59:44;7.47;;;3.22;;
70549;SDS011;58101;48.658;2.328;2023-06-14T10:02:25;6.82;;;3.38;;
70549;SDS011;58101;48.658;2.328;2023-06-14T10:04:57;8.25;;;3.45;;
70549;SDS011;58101;48.658;2.328;2023-06-14T10:07:42;7.75;;;3.33;;
70549;SDS011;58101;48.658;2.328;2023-06-14T10:10:26;7.38;;;3.35;;
70549;SDS011;58101;48.658;2.328;2023-06-14T10:12:52;6.68;;;3.53;;
70549;SDS011;58101;48.658;2.328;2023-06-14T10:15:20;7.60;;;3.40;;
70549;SDS011;58101;48.658;2.328;2023-06-14T10:17:57;9.55;;;3.35;;
70549;SDS011;58101;48.658;2.328;2023-06-14T10:23:08;8.32;;;3.65;;
70549;SDS011;58101;48.658;2.328;2023-06-14T10:25:41;8.10;;;3.53;;
70549;SDS011;58101;48.658;2.328;2023-06-14T10:28:17;7.70;;;3.33;;
70549;SDS011;58101;48.658;2.328;2023-06-14T10:33:39;10.38;;;3.90;;
70549;SDS011;58101;48.658;2.328;2023-06-14T10:38:58;8.88;;;3.88;;
70549;SDS011;58101;48.658;2.328;2023-06-14T10:41:51;8.90;;;3.90;;
70549;SDS011;58101;48.658;2.328;2023-06-14T10:46:46;7.15;;;3.72;;
70549;SDS011;58101;48.658;2.328;2023-06-14T10:49:16;8.68;;;3.97;;
70549;SDS011;58101;48.658;2.328;2023-06-14T10:51:45;8.45;;;3.60;;
70549;SDS011;58101;48.658;2.328;2023-06-14T10:54:15;8.18;;;3.70;;
70549;SDS011;58101;48.658;2.328;2023-06-14T10:56:48;10.02;;;3.67;;
70549;SDS011;58101;48.658;2.328;2023-06-14T10:59:15;9.10;;;3.55;;
70549;SDS011;58101;48.658;2.328;2023-06-14T11:04:56;7.47;;;3.75;;
70549;SDS011;58101;48.658;2.328;2023-06-14T11:07:48;8.75;;;3.63;;
70549;SDS011;58101;48.658;2.328;2023-06-14T11:10:45;9.75;;;3.90;;
70549;SDS011;58101;48.658;2.328;2023-06-14T11:13:12;7.68;;;3.80;;
70549;SDS011;58101;48.658;2.328;2023-06-14T11:15:43;7.82;;;3.75;;
70549;SDS011;58101;48.658;2.328;2023-06-14T11:18:11;8.25;;;3.88;;
70549;SDS011;58101;48.658;2.328;2023-06-14T11:20:39;9.43;;;3.97;;
70549;SDS011;58101;48.658;2.328;2023-06-14T11:23:05;7.95;;;3.70;;
70549;SDS011;58101;48.658;2.328;2023-06-14T11:25:30;14.07;;;3.95;;
70549;SDS011;58101;48.658;2.328;2023-06-14T11:27:56;6.93;;;3.60;;
70549;SDS011;58101;48.658;2.328;2023-06-14T11:30:23;7.68;;;3.85;;
70549;SDS011;58101;48.658;2.328;2023-06-14T11:32:50;7.75;;;3.75;;
70549;SDS011;58101;48.658;2.328;2023-06-14T11:35:17;7.38;;;3.50;;
70549;SDS011;58101;48.658;2.328;2023-06-14T11:37:48;8.30;;;3.97;;
70549;SDS011;58101;48.658;2.328;2023-06-14T11:40:17;8.13;;;3.47;;
70549;SDS011;58101;48.658;2.328;2023-06-14T11:42:45;8.55;;;3.88;;
70549;SDS011;58101;48.658;2.328;2023-06-14T11:45:11;8.25;;;3.50;;
70549;SDS011;58101;48.658;2.328;2023-06-14T11:47:40;7.97;;;3.70;;
70549;SDS011;58101;48.658;2.328;2023-06-14T11:50:07;8.52;;;3.80;;
70549;SDS011;58101;48.658;2.328;2023-06-14T11:52:36;7.80;;;3.60;;
70549;SDS011;58101;48.658;2.328;2023-06-14T11:55:05;8.02;;;3.50;;
70549;SDS011;58101;48.658;2.328;2023-06-14T11:57:35;9.00;;;3.92;;
70549;SDS011;58101;48.658;2.328;2023-06-14T12:00:05;8.60;;;3.70;;
70549;SDS011;58101;48.658;2.328;2023-06-14T12:02:40;7.90;;;3.55;;
70549;SDS011;58101;48.658;2.328;2023-06-14T12:05:06;8.88;;;4.22;;
70549;SDS011;58101;48.658;2.328;2023-06-14T12:07:38;9.05;;;3.97;;
70549;SDS011;58101;48.658;2.328;2023-06-14T12:10:07;7.65;;;3.72;;
70549;SDS011;58101;48.658;2.328;2023-06-14T12:12:38;8.70;;;3.90;;
70549;SDS011;58101;48.658;2.328;2023-06-14T12:15:05;7.93;;;3.85;;
70549;SDS011;58101;48.658;2.328;2023-06-14T12:17:36;8.43;;;3.80;;
70549;SDS011;58101;48.658;2.328;2023-06-14T12:20:08;7.72;;;3.63;;
70549;SDS011;58101;48.658;2.328;2023-06-14T12:22:52;8.43;;;3.50;;
70549;SDS011;58101;48.658;2.328;2023-06-14T12:25:28;9.65;;;3.70;;
70549;SDS011;58101;48.658;2.328;2023-06-14T12:27:56;7.20;;;3.50;;
70549;SDS011;58101;48.658;2.328;2023-06-14T12:30:26;9.27;;;3.83;;
70549;SDS011;58101;48.658;2.328;2023-06-14T12:32:51;7.72;;;3.72;;
70549;SDS011;58101;48.658;2.328;2023-06-14T12:35:17;8.07;;;3.47;;
70549;SDS011;58101;48.658;2.328;2023-06-14T12:37:44;12.80;;;3.65;;
70549;SDS011;58101;48.658;2.328;2023-06-14T12:40:10;7.90;;;3.50;;
70549;SDS011;58101;48.658;2.328;2023-06-14T12:42:37;8.20;;;3.60;;
70549;SDS011;58101;48.658;2.328;2023-06-14T12:45:02;7.65;;;3.53;;
70549;SDS011;58101;48.658;2.328;2023-06-14T12:47:28;9.05;;;3.60;;
70549;SDS011;58101;48.658;2.328;2023-06-14T12:49:54;9.00;;;3.22;;
70549;SDS011;58101;48.658;2.328;2023-06-14T12:52:20;9.85;;;3.60;;
70549;SDS011;58101;48.658;2.328;2023-06-14T12:54:46;7.93;;;3.33;;
70549;SDS011;58101;48.658;2.328;2023-06-14T12:57:11;7.57;;;3.42;;
70549;SDS011;58101;48.658;2.328;2023-06-14T12:59:37;7.13;;;3.40;;
70549;SDS011;58101;48.658;2.328;2023-06-14T13:02:15;8.68;;;3.60;;
70549;SDS011;58101;48.658;2.328;2023-06-14T13:04:43;8.38;;;3.55;;
70549;SDS011;58101;48.658;2.328;2023-06-14T13:07:08;7.72;;;3.40;;
70549;SDS011;58101;48.658;2.328;2023-06-14T13:09:36;8.82;;;3.63;;
70549;SDS011;58101;48.658;2.328;2023-06-14T13:12:02;7.97;;;3.25;;
70549;SDS011;58101;48.658;2.328;2023-06-14T13:14:28;7.85;;;3.65;;
70549;SDS011;58101;48.658;2.328;2023-06-14T13:16:53;8.90;;;3.72;;
70549;SDS011;58101;48.658;2.328;2023-06-14T13:19:20;7.07;;;3.58;;
70549;SDS011;58101;48.658;2.328;2023-06-14T13:21:46;7.85;;;3.40;;
70549;SDS011;58101;48.658;2.328;2023-06-14T13:24:11;7.20;;;3.50;;
70549;SDS011;58101;48.658;2.328;2023-06-14T13:26:37;10.95;;;3.40;;
70549;SDS011;58101;48.658;2.328;2023-06-14T13:29:03;8.57;;;3.60;;
70549;SDS011;58101;48.658;2.328;2023-06-14T13:31:28;7.70;;;3.40;;
70549;SDS011;58101;48.658;2.328;2023-06-14T13:33:54;7.93;;;3.20;;
70549;SDS011;58101;48.658;2.328;2023-06-14T13:36:20;7.38;;;3.40;;
70549;SDS011;58101;48.658;2.328;2023-06-14T13:38:45;8.07;;;3.17;;
70549;SDS011;58101;48.658;2.328;2023-06-14T13:41:11;7.03;;;3.53;;
70549;SDS011;58101;48.658;2.328;2023-06-14T13:43:36;6.80;;;3.30;;
70549;SDS011;58101;48.658;2.328;2023-06-14T13:46:02;10.80;;;3.45;;
70549;SDS011;58101;48.658;2.328;2023-06-14T13:48:28;8.48;;;3.80;;
70549;SDS011;58101;48.658;2.328;2023-06-14T13:50:53;8.80;;;3.80;;
70549;SDS011;58101;48.658;2.328;2023-06-14T13:53:19;9.48;;;3.90;;
70549;SDS011;58101;48.658;2.328;2023-06-14T13:55:44;7.28;;;3.30;;
70549;SDS011;58101;48.658;2.328;2023-06-14T13:58:10;10.02;;;3.70;;
70549;SDS011;58101;48.658;2.328;2023-06-14T14:00:36;8.25;;;3.53;;
70549;SDS011;58101;48.658;2.328;2023-06-14T14:03:05;7.90;;;3.58;;
70549;SDS011;58101;48.658;2.328;2023-06-14T14:05:31;6.88;;;3.20;;
70549;SDS011;58101;48.658;2.328;2023-06-14T14:07:57;8.00;;;3.50;;
70549;SDS011;58101;48.658;2.328;2023-06-14T14:10:24;8.23;;;3.53;;
70549;SDS011;58101;48.658;2.328;2023-06-14T14:12:50;8.05;;;3.60;;
70549;SDS011;58101;48.658;2.328;2023-06-14T14:15:16;7.75;;;3.63;;
70549;SDS011;58101;48.658;2.328;2023-06-14T14:17:42;7.97;;;3.75;;
70549;SDS011;58101;48.658;2.328;2023-06-14T14:20:11;6.50;;;3.40;;
70549;SDS011;58101;48.658;2.328;2023-06-14T14:22:40;8.98;;;3.65;;
70549;SDS011;58101;48.658;2.328;2023-06-14T14:25:08;7.32;;;3.40;;
70549;SDS011;58101;48.658;2.328;2023-06-14T14:27:35;7.93;;;3.60;;
70549;SDS011;58101;48.658;2.328;2023-06-14T14:30:02;10.35;;;3.75;;
70549;SDS011;58101;48.658;2.328;2023-06-14T14:32:31;7.65;;;3.47;;
70549;SDS011;58101;48.658;2.328;2023-06-14T14:34:57;9.00;;;3.72;;
70549;SDS011;58101;48.658;2.328;2023-06-14T14:37:23;9.18;;;3.80;;
70549;SDS011;58101;48.658;2.328;2023-06-14T14:39:49;7.25;;;3.55;;
70549;SDS011;58101;48.658;2.328;2023-06-14T14:42:15;7.47;;;3.08;;
70549;SDS011;58101;48.658;2.328;2023-06-14T14:44:40;9.73;;;3.70;;
70549;SDS011;58101;48.658;2.328;2023-06-14T14:47:06;7.53;;;3.80;;
70549;SDS011;58101;48.658;2.328;2023-06-14T14:49:32;8.38;;;3.67;;
70549;SDS011;58101;48.658;2.328;2023-06-14T14:51:57;6.93;;;3.60;;
70549;SDS011;58101;48.658;2.328;2023-06-14T14:54:23;7.60;;;3.50;;
70549;SDS011;58101;48.658;2.328;2023-06-14T14:56:50;9.40;;;3.75;;
70549;SDS011;58101;48.658;2.328;2023-06-14T14:59:16;7.85;;;3.60;;
70549;SDS011;58101;48.658;2.328;2023-06-14T15:01:42;7.57;;;3.45;;
70549;SDS011;58101;48.658;2.328;2023-06-14T15:04:10;7.28;;;3.35;;
70549;SDS011;58101;48.658;2.328;2023-06-14T15:06:37;6.97;;;3.38;;
70549;SDS011;58101;48.658;2.328;2023-06-14T15:09:06;7.50;;;3.60;;
70549;SDS011;58101;48.658;2.328;2023-06-14T15:11:32;6.78;;;3.35;;
70549;SDS011;58101;48.658;2.328;2023-06-14T15:13:57;7.45;;;3.47;;
70549;SDS011;58101;48.658;2.328;2023-06-14T15:16:23;7.45;;;3.40;;
70549;SDS011;58101;48.658;2.328;2023-06-14T15:18:49;7.47;;;3.55;;
70549;SDS011;58101;48.658;2.328;2023-06-14T15:21:15;9.45;;;3.50;;
70549;SDS011;58101;48.658;2.328;2023-06-14T15:23:40;6.72;;;3.25;;
70549;SDS011;58101;48.658;2.328;2023-06-14T15:26:06;9.13;;;3.55;;
70549;SDS011;58101;48.658;2.328;2023-06-14T15:28:31;9.15;;;3.50;;
70549;SDS011;58101;48.658;2.328;2023-06-14T15:30:58;8.00;;;3.60;;